Time;durP1;ratioP1;P1;durP2;ratioP2;P2;SDS_P1;SDS_P2;PMS_P1;PMS_P2;Temp;Humidity;BMP_temperature;BMP_pressure;BME280_temperature;BME280_humidity;BME280_pressure;Samples;Min_cycle;Max_cycle;Signal;HPM_P1;HPM_P2
2021/11/04 00:01:04;;;;;;;20.85;15.82;;;8.30;1.00;;;;;;5120117;27;20279;-84
2021/11/04 00:03:31;;;;;;;16.67;15.02;;;8.30;1.00;;;;;;5098037;27;20240;-86
2021/11/04 00:05:58;;;;;;;17.05;15.10;;;8.30;1.00;;;;;;5117907;27;20219;-86
2021/11/04 00:08:25;;;;;;;18.23;15.63;;;8.30;1.00;;;;;;5117445;27;20559;-86
2021/11/04 00:10:51;;;;;;;18.23;14.55;;;8.20;1.00;;;;;;5119227;27;20216;-87
2021/11/04 00:13:20;;;;;;;22.10;15.63;;;8.30;1.00;;;;;;5115306;27;20237;-86
2021/11/04 00:15:46;;;;;;;18.90;15.50;;;8.30;1.00;;;;;;5120663;27;20229;-86
2021/11/04 00:18:13;;;;;;;19.35;17.35;;;8.20;1.00;;;;;;5108823;27;21088;-86
2021/11/04 00:20:40;;;;;;;16.27;14.57;;;8.20;1.00;;;;;;5117932;27;20223;-86
2021/11/04 00:23:06;;;;;;;18.83;15.90;;;8.20;1.00;;;;;;5116508;27;20392;-84
2021/11/04 00:25:33;;;;;;;18.73;16.52;;;8.20;1.00;;;;;;5101127;27;21115;-86
2021/11/04 00:28:00;;;;;;;19.48;17.40;;;8.20;1.00;;;;;;5123321;27;20232;-84
2021/11/04 00:30:30;;;;;;;19.63;16.65;;;8.20;1.00;;;;;;5122568;27;20338;-84
2021/11/04 00:32:57;;;;;;;19.55;17.02;;;8.10;1.00;;;;;;5138459;27;20223;-86
2021/11/04 00:35:25;;;;;;;18.77;15.75;;;8.10;1.00;;;;;;5136582;27;20303;-85
2021/11/04 00:37:51;;;;;;;20.70;17.20;;;8.10;1.00;;;;;;5134292;27;20314;-84
2021/11/04 00:40:22;;;;;;;20.48;17.25;;;8.10;1.00;;;;;;5127756;27;20216;-85
2021/11/04 00:42:49;;;;;;;24.50;17.63;;;8.10;1.00;;;;;;5126752;27;20232;-83
2021/11/04 00:45:16;;;;;;;19.65;16.55;;;8.00;1.00;;;;;;5098467;27;20240;-84
2021/11/04 00:47:44;;;;;;;19.60;17.50;;;8.00;1.00;;;;;;5121295;27;20666;-85
2021/11/04 00:50:11;;;;;;;21.00;18.00;;;8.00;1.00;;;;;;5119791;27;20861;-85
2021/11/04 00:52:38;;;;;;;21.50;19.20;;;8.00;1.00;;;;;;5109317;27;20228;-86
2021/11/04 00:55:05;;;;;;;22.73;17.42;;;8.00;1.00;;;;;;5111091;27;20218;-85
2021/11/04 00:57:32;;;;;;;24.07;19.57;;;8.00;1.00;;;;;;5110668;27;20474;-86
2021/11/04 00:59:58;;;;;;;21.55;18.50;;;7.90;1.00;;;;;;5095060;27;21056;-86
2021/11/04 01:02:25;;;;;;;21.75;18.15;;;8.00;1.00;;;;;;5105805;27;20242;-86
2021/11/04 01:04:53;;;;;;;24.20;18.87;;;8.00;1.00;;;;;;5094931;27;20237;-85
2021/11/04 01:07:20;;;;;;;21.90;18.27;;;8.00;1.00;;;;;;5115754;27;20447;-86
2021/11/04 01:09:47;;;;;;;25.50;20.92;;;8.00;1.00;;;;;;5135298;27;20211;-86
2021/11/04 01:12:13;;;;;;;23.08;20.60;;;8.00;1.00;;;;;;5119250;27;20247;-86
2021/11/04 01:14:40;;;;;;;23.80;19.65;;;8.00;1.00;;;;;;5095292;27;20241;-85
2021/11/04 01:17:07;;;;;;;23.55;19.95;;;8.00;1.00;;;;;;5141149;27;20215;-86
2021/11/04 01:19:34;;;;;;;22.70;19.85;;;8.00;1.00;;;;;;5122931;27;20310;-85
2021/11/04 01:22:01;;;;;;;23.27;20.30;;;8.00;1.00;;;;;;5124248;27;20230;-84
2021/11/04 01:24:28;;;;;;;22.65;20.20;;;8.10;1.00;;;;;;5102596;27;20228;-85
2021/11/04 01:26:55;;;;;;;22.98;20.42;;;8.10;1.00;;;;;;5129132;27;20223;-84
2021/11/04 01:29:22;;;;;;;23.70;19.10;;;8.10;1.00;;;;;;5133929;27;20737;-84
2021/11/04 01:31:48;;;;;;;22.10;19.70;;;8.10;1.00;;;;;;5119846;27;20280;-84
2021/11/04 01:34:15;;;;;;;24.00;20.00;;;8.10;1.00;;;;;;5125305;27;20283;-85
2021/11/04 01:36:42;;;;;;;24.00;20.27;;;8.10;1.00;;;;;;5123365;27;20361;-84
2021/11/04 01:39:10;;;;;;;23.90;21.30;;;8.10;1.00;;;;;;5116338;27;20220;-86
2021/11/04 01:41:36;;;;;;;23.38;20.23;;;8.10;1.00;;;;;;5120233;27;20422;-85
2021/11/04 01:44:04;;;;;;;21.85;19.55;;;8.10;1.00;;;;;;5112735;27;20562;-84
2021/11/04 01:46:31;;;;;;;24.52;21.13;;;8.00;1.00;;;;;;5102521;27;20224;-85
2021/11/04 01:49:00;;;;;;;24.25;20.98;;;7.90;1.00;;;;;;5115165;27;20316;-86
2021/11/04 01:51:26;;;;;;;23.30;20.75;;;7.90;1.00;;;;;;5112363;27;20238;-86
2021/11/04 01:53:53;;;;;;;25.10;21.48;;;7.90;1.00;;;;;;5114531;27;20506;-84
2021/11/04 01:56:21;;;;;;;24.73;20.25;;;7.90;1.00;;;;;;5113521;27;20230;-85
2021/11/04 01:58:48;;;;;;;25.70;22.95;;;7.90;1.00;;;;;;5113598;27;20999;-85
2021/11/04 02:01:16;;;;;;;23.90;20.63;;;7.90;1.00;;;;;;5111140;27;20220;-86
2021/11/04 02:03:50;;;;;;;24.70;21.33;;;7.90;1.00;;;;;;5112677;27;20227;-86
2021/11/04 02:06:25;;;;;;;25.00;21.13;;;7.90;1.00;;;;;;5114941;27;20929;-85
2021/11/04 02:08:57;;;;;;;27.10;22.77;;;7.90;1.00;;;;;;5137437;27;20208;-85
2021/11/04 02:11:33;;;;;;;27.50;22.38;;;7.90;1.00;;;;;;5124767;27;20292;-85
2021/11/04 02:14:03;;;;;;;26.60;22.45;;;7.90;1.00;;;;;;5108982;27;20225;-83
2021/11/04 02:16:31;;;;;;;27.40;23.35;;;7.90;1.00;;;;;;5106700;27;20235;-85
2021/11/04 02:19:05;;;;;;;29.00;23.25;;;7.80;1.00;;;;;;5109992;27;20226;-84
2021/11/04 02:21:36;;;;;;;26.60;22.80;;;7.90;1.00;;;;;;5102327;27;20256;-85
2021/11/04 02:24:10;;;;;;;26.83;22.08;;;7.90;1.00;;;;;;5107167;27;20258;-87
2021/11/04 02:26:39;;;;;;;28.50;22.50;;;7.90;1.00;;;;;;5093233;27;20227;-88
2021/11/04 02:29:07;;;;;;;27.27;23.85;;;7.90;1.00;;;;;;5107028;27;20216;-85
2021/11/04 02:31:35;;;;;;;27.52;23.77;;;7.90;1.00;;;;;;5112687;27;21438;-86
2021/11/04 02:34:02;;;;;;;31.05;24.48;;;7.90;1.00;;;;;;5114265;27;20232;-87
2021/11/04 02:36:30;;;;;;;29.23;25.92;;;7.90;1.00;;;;;;5111937;27;20272;-85
2021/11/04 02:38:58;;;;;;;29.83;24.15;;;7.90;1.00;;;;;;5112557;27;20224;-87
2021/11/04 02:41:25;;;;;;;28.95;25.67;;;7.90;1.00;;;;;;5114768;27;20671;-87
2021/11/04 02:43:53;;;;;;;29.05;25.38;;;7.90;1.00;;;;;;5119603;27;20223;-86
2021/11/04 02:46:20;;;;;;;29.63;25.00;;;8.00;1.00;;;;;;5133661;27;20211;-86
2021/11/04 02:48:47;;;;;;;28.15;24.60;;;8.00;1.00;;;;;;5131692;27;20217;-86
2021/11/04 02:51:13;;;;;;;26.88;22.70;;;8.00;1.00;;;;;;5107574;27;20365;-87
2021/11/04 02:53:45;;;;;;;27.77;24.17;;;8.00;1.00;;;;;;5109630;27;20232;-86
2021/11/04 02:56:12;;;;;;;27.90;24.90;;;8.00;1.00;;;;;;5106159;27;20287;-86
2021/11/04 02:58:39;;;;;;;28.50;23.77;;;8.00;1.00;;;;;;5109369;27;20239;-85
2021/11/04 03:01:07;;;;;;;27.83;24.60;;;8.00;1.00;;;;;;5107331;27;21131;-88
2021/11/04 03:03:34;;;;;;;29.45;25.15;;;8.00;1.00;;;;;;5108457;27;21159;-86
2021/11/04 03:06:01;;;;;;;28.77;25.58;;;8.00;1.00;;;;;;5106112;27;20308;-86
2021/11/04 03:08:28;;;;;;;29.58;26.10;;;8.00;1.00;;;;;;5107626;27;20231;-86
2021/11/04 03:10:56;;;;;;;31.00;24.95;;;8.00;1.00;;;;;;5095614;27;20219;-86
2021/11/04 03:13:23;;;;;;;30.50;26.98;;;8.00;1.00;;;;;;5109483;27;20478;-86
2021/11/04 03:15:55;;;;;;;32.67;27.33;;;8.00;1.00;;;;;;5110152;27;20258;-87
2021/11/04 03:18:25;;;;;;;31.15;26.80;;;8.00;1.00;;;;;;5110144;27;21077;-87
2021/11/04 03:20:53;;;;;;;30.77;26.10;;;7.90;1.00;;;;;;5107986;27;20220;-86
2021/11/04 03:23:20;;;;;;;36.22;29.10;;;7.90;1.00;;;;;;5110525;27;21293;-86
2021/11/04 03:25:48;;;;;;;28.90;25.60;;;7.90;1.00;;;;;;5113287;27;20290;-86
2021/11/04 03:28:16;;;;;;;34.88;29.20;;;7.80;1.00;;;;;;5109727;27;20217;-86
2021/11/04 03:30:44;;;;;;;31.92;27.95;;;7.80;1.00;;;;;;5109131;27;23050;-87
2021/11/04 03:33:11;;;;;;;35.13;29.25;;;7.70;1.00;;;;;;5096206;27;21582;-86
2021/11/04 03:35:41;;;;;;;36.80;29.73;;;7.70;1.00;;;;;;5129846;27;20251;-86
2021/11/04 03:38:11;;;;;;;36.00;30.70;;;7.70;1.00;;;;;;5132141;27;20299;-85
2021/11/04 03:40:39;;;;;;;35.17;30.30;;;7.70;1.00;;;;;;5113364;27;20224;-85
2021/11/04 03:43:07;;;;;;;34.88;30.17;;;7.70;1.00;;;;;;5116090;27;20215;-86
2021/11/04 03:45:36;;;;;;;36.63;30.02;;;7.70;1.00;;;;;;5118376;27;20246;-85
2021/11/04 03:48:04;;;;;;;36.83;30.08;;;7.70;1.00;;;;;;5129446;27;20287;-87
2021/11/04 03:50:31;;;;;;;37.60;30.35;;;7.70;1.00;;;;;;5132716;27;20218;-87
2021/11/04 03:53:00;;;;;;;45.83;37.78;;;7.70;1.00;;;;;;5118688;27;20354;-87
2021/11/04 03:55:29;;;;;;;37.97;30.20;;;7.70;1.00;;;;;;5106492;27;20233;-85
2021/11/04 03:57:57;;;;;;;35.58;30.23;;;7.80;1.00;;;;;;5117096;27;20850;-86
2021/11/04 04:00:24;;;;;;;40.22;31.63;;;7.80;1.00;;;;;;5115280;27;20219;-87
2021/11/04 04:02:51;;;;;;;35.00;30.15;;;7.80;1.00;;;;;;5118125;27;20222;-87
2021/11/04 04:05:27;;;;;;;41.03;32.72;;;7.90;1.00;;;;;;5123224;27;20328;-86
2021/11/04 04:07:54;;;;;;;54.28;42.78;;;7.90;1.00;;;;;;5120140;27;21177;-86
2021/11/04 04:10:22;;;;;;;40.45;32.40;;;7.80;1.00;;;;;;5122139;27;20292;-86
2021/11/04 04:12:49;;;;;;;43.97;33.80;;;7.90;1.00;;;;;;5124390;27;21394;-85
2021/11/04 04:15:16;;;;;;;43.47;35.20;;;7.90;1.00;;;;;;5120967;27;20211;-86
2021/11/04 04:17:42;;;;;;;42.35;34.63;;;7.90;1.00;;;;;;5105421;27;20234;-85
2021/11/04 04:20:10;;;;;;;41.28;34.60;;;8.00;1.00;;;;;;5119266;27;21104;-85
2021/11/04 04:22:37;;;;;;;43.35;34.75;;;7.90;1.00;;;;;;5120187;27;20309;-85
2021/11/04 04:25:05;;;;;;;43.65;33.85;;;7.90;1.00;;;;;;5118587;27;20262;-85
2021/11/04 04:27:34;;;;;;;45.13;34.20;;;7.90;1.00;;;;;;5099443;27;20272;-84
2021/11/04 04:30:00;;;;;;;40.33;33.58;;;7.90;1.00;;;;;;5118880;27;20253;-85
2021/11/04 04:32:27;;;;;;;46.95;34.85;;;8.00;1.00;;;;;;5113973;27;20216;-85
2021/11/04 04:34:54;;;;;;;47.15;36.70;;;8.00;1.00;;;;;;5116039;27;20998;-86
2021/11/04 04:37:21;;;;;;;46.50;35.72;;;8.00;1.00;;;;;;5115634;27;20220;-85
2021/11/04 04:39:48;;;;;;;48.60;36.88;;;7.90;1.00;;;;;;5120785;27;20247;-86
2021/11/04 04:42:15;;;;;;;45.95;36.63;;;7.90;1.00;;;;;;5130667;27;20226;-87
2021/11/04 04:44:43;;;;;;;45.42;35.10;;;7.90;1.00;;;;;;5137883;27;20267;-87
2021/11/04 04:47:09;;;;;;;47.25;37.42;;;8.00;1.00;;;;;;5115643;27;20982;-85
2021/11/04 04:49:36;;;;;;;52.60;37.65;;;8.00;1.00;;;;;;5108581;27;20222;-86
2021/11/04 04:52:04;;;;;;;48.05;35.65;;;8.00;1.00;;;;;;5112389;27;20487;-88
2021/11/04 04:54:31;;;;;;;48.53;36.05;;;8.00;1.00;;;;;;5127525;27;20227;-89
2021/11/04 04:56:58;;;;;;;47.70;36.05;;;8.10;1.00;;;;;;5127951;27;20275;-86
2021/11/04 04:59:25;;;;;;;43.22;34.95;;;8.10;1.00;;;;;;5125065;27;20249;-86
2021/11/04 05:01:53;;;;;;;44.97;37.42;;;8.10;1.00;;;;;;5105755;27;20234;-86
2021/11/04 05:04:20;;;;;;;44.80;36.43;;;8.10;1.00;;;;;;5104793;27;22148;-85
2021/11/04 05:06:47;;;;;;;45.33;35.90;;;8.20;1.00;;;;;;5096155;27;21831;-84
2021/11/04 05:09:13;;;;;;;49.95;38.45;;;8.10;1.00;;;;;;5111415;27;20308;-85
2021/11/04 05:11:40;;;;;;;45.35;36.38;;;8.20;1.00;;;;;;5118941;27;20227;-86
2021/11/04 05:14:07;;;;;;;52.53;37.83;;;8.20;1.00;;;;;;5118164;27;20228;-86
2021/11/04 05:16:33;;;;;;;44.05;35.63;;;8.20;1.00;;;;;;5111703;27;20669;-88
2021/11/04 05:19:04;;;;;;;46.50;35.88;;;8.20;1.00;;;;;;5114117;27;20794;-87
2021/11/04 05:21:31;;;;;;;51.80;39.10;;;8.20;1.00;;;;;;5114833;27;21213;-86
2021/11/04 05:23:57;;;;;;;50.38;37.65;;;8.20;1.00;;;;;;5109845;27;21035;-88
2021/11/04 05:26:24;;;;;;;45.30;36.00;;;8.20;1.00;;;;;;5105681;27;20267;-86
2021/11/04 05:28:51;;;;;;;45.47;34.65;;;8.20;1.00;;;;;;5114575;27;21228;-88
2021/11/04 05:31:17;;;;;;;48.90;38.33;;;8.20;1.00;;;;;;5094306;27;21081;-86
2021/11/04 05:33:44;;;;;;;48.15;37.20;;;8.20;1.00;;;;;;5121129;27;20244;-86
2021/11/04 05:36:12;;;;;;;46.45;36.75;;;8.30;1.00;;;;;;5119786;27;20288;-86
2021/11/04 05:38:39;;;;;;;46.40;39.85;;;8.30;1.00;;;;;;5125082;27;20325;-85
2021/11/04 05:41:06;;;;;;;48.75;38.47;;;8.30;1.00;;;;;;5119481;27;20252;-86
2021/11/04 05:43:32;;;;;;;42.38;35.80;;;8.30;1.00;;;;;;5128698;27;21049;-85
2021/11/04 05:46:00;;;;;;;45.70;37.47;;;8.30;1.00;;;;;;5135914;27;20816;-87
2021/11/04 05:48:27;;;;;;;44.55;35.72;;;8.30;1.00;;;;;;5118728;27;20342;-85
2021/11/04 05:50:55;;;;;;;44.88;34.40;;;8.40;1.00;;;;;;5096687;27;20344;-86
2021/11/04 05:53:24;;;;;;;42.25;35.05;;;8.30;1.00;;;;;;5100647;27;20232;-87
2021/11/04 05:55:53;;;;;;;47.08;36.47;;;8.40;1.00;;;;;;5121336;27;20324;-87
2021/11/04 05:58:20;;;;;;;45.75;36.85;;;8.40;1.00;;;;;;5125345;27;20286;-86
2021/11/04 06:00:46;;;;;;;49.33;36.15;;;8.40;1.00;;;;;;5114663;27;20297;-86
2021/11/04 06:03:14;;;;;;;41.72;35.55;;;8.40;1.00;;;;;;5115251;27;20262;-84
2021/11/04 06:05:41;;;;;;;48.40;37.97;;;8.50;1.00;;;;;;5113830;27;20223;-86
2021/11/04 06:08:09;;;;;;;46.78;37.30;;;8.60;1.00;;;;;;5110197;27;20317;-86
2021/11/04 06:10:37;;;;;;;48.80;37.50;;;8.60;1.00;;;;;;5113235;27;20297;-86
2021/11/04 06:13:05;;;;;;;46.22;36.22;;;8.60;1.00;;;;;;5121042;27;20285;-84
2021/11/04 06:15:32;;;;;;;49.42;37.08;;;8.60;1.00;;;;;;5111953;27;21112;-86
2021/11/04 06:17:59;;;;;;;44.97;34.95;;;8.70;1.00;;;;;;5096437;27;20227;-86
2021/11/04 06:20:26;;;;;;;42.43;34.50;;;8.70;1.00;;;;;;5116719;27;20229;-86
2021/11/04 06:22:53;;;;;;;48.30;39.50;;;8.70;1.00;;;;;;5102823;27;20473;-85
2021/11/04 06:25:20;;;;;;;47.58;37.25;;;8.80;1.00;;;;;;5115497;27;20518;-86
2021/11/04 06:27:48;;;;;;;50.20;38.65;;;8.70;1.00;;;;;;5098365;27;20268;-86
2021/11/04 06:30:15;;;;;;;50.33;36.85;;;8.70;1.00;;;;;;5115824;27;20294;-85
2021/11/04 06:32:42;;;;;;;49.65;36.13;;;8.80;1.00;;;;;;5118439;27;20220;-84
2021/11/04 06:35:10;;;;;;;48.33;37.35;;;8.70;1.00;;;;;;5122450;27;20226;-86
2021/11/04 06:37:38;;;;;;;47.33;37.85;;;8.70;1.00;;;;;;5126481;27;20218;-86
2021/11/04 06:40:08;;;;;;;49.92;38.05;;;8.80;1.00;;;;;;5148937;27;20321;-85
2021/11/04 06:42:35;;;;;;;46.40;37.28;;;8.80;1.00;;;;;;5121547;27;20222;-85
2021/11/04 06:45:04;;;;;;;46.45;36.65;;;8.80;1.00;;;;;;5121086;27;20257;-85
2021/11/04 06:47:39;;;;;;;47.85;37.58;;;8.80;1.00;;;;;;5116984;27;20252;-86
2021/11/04 06:50:08;;;;;;;50.08;35.55;;;8.80;1.00;;;;;;5121321;27;20261;-86
2021/11/04 06:52:38;;;;;;;48.25;36.90;;;8.90;1.00;;;;;;5122887;27;20279;-84
2021/11/04 06:55:07;;;;;;;45.97;36.63;;;8.90;1.00;;;;;;5127568;27;20222;-86
2021/11/04 06:57:40;;;;;;;49.67;38.40;;;9.00;1.00;;;;;;5128460;27;20324;-87
2021/11/04 07:00:11;;;;;;;53.92;36.45;;;9.00;1.00;;;;;;5131643;27;20219;-86
2021/11/04 07:02:40;;;;;;;50.97;37.50;;;9.00;1.00;;;;;;5132068;27;20335;-85
2021/11/04 07:05:12;;;;;;;61.83;38.67;;;9.00;1.00;;;;;;5110879;27;20227;-85
2021/11/04 07:07:44;;;;;;;55.15;40.53;;;8.90;1.00;;;;;;5104287;27;20803;-85
2021/11/04 07:10:11;;;;;;;50.37;38.00;;;9.00;1.00;;;;;;5116986;27;20224;-86
2021/11/04 07:12:45;;;;;;;47.35;36.35;;;9.00;1.00;;;;;;5119864;27;20417;-85
2021/11/04 07:15:14;;;;;;;52.60;37.15;;;9.00;1.00;;;;;;5118954;27;20227;-86
2021/11/04 07:17:42;;;;;;;51.07;36.67;;;9.00;1.00;;;;;;5094420;27;20211;-86
2021/11/04 07:20:11;;;;;;;49.25;38.03;;;9.00;1.00;;;;;;5109099;27;20501;-86
2021/11/04 07:22:40;;;;;;;49.97;37.33;;;9.00;1.00;;;;;;5123402;27;20232;-86
2021/11/04 07:25:09;;;;;;;49.75;39.60;;;9.00;1.00;;;;;;5123518;27;20559;-86
2021/11/04 07:27:43;;;;;;;45.80;37.90;;;9.00;1.00;;;;;;5125029;27;20236;-86
2021/11/04 07:30:14;;;;;;;48.03;35.50;;;9.10;1.00;;;;;;5116380;27;20270;-85
2021/11/04 07:32:47;;;;;;;49.90;37.70;;;9.00;1.00;;;;;;5123717;27;20898;-85
2021/11/04 07:35:16;;;;;;;53.55;39.20;;;9.00;1.00;;;;;;5132817;27;20290;-85
2021/11/04 07:37:45;;;;;;;53.57;36.97;;;9.00;1.00;;;;;;5125954;27;20226;-86
2021/11/04 07:40:13;;;;;;;45.35;36.88;;;9.10;1.00;;;;;;5129108;27;20652;-86
2021/11/04 07:42:39;;;;;;;48.38;36.80;;;9.10;1.00;;;;;;5099377;27;20222;-86
2021/11/04 07:45:07;;;;;;;58.95;43.90;;;9.00;1.00;;;;;;5094735;27;20318;-86
2021/11/04 07:47:36;;;;;;;45.97;35.85;;;9.00;1.00;;;;;;5124236;27;20339;-85
2021/11/04 07:50:04;;;;;;;49.10;35.77;;;9.00;1.00;;;;;;5099003;27;20218;-85
2021/11/04 07:52:31;;;;;;;46.27;36.43;;;9.00;1.00;;;;;;5104498;27;20457;-85
2021/11/04 07:54:59;;;;;;;60.67;43.97;;;8.90;1.00;;;;;;5145572;27;20457;-86
2021/11/04 07:57:26;;;;;;;66.47;44.85;;;8.90;1.00;;;;;;5129422;27;20258;-86
2021/11/04 07:59:53;;;;;;;54.70;37.53;;;8.80;1.00;;;;;;5119317;27;21148;-84
2021/11/04 08:02:20;;;;;;;49.83;37.47;;;8.70;1.00;;;;;;5119415;27;20668;-86
2021/11/04 08:04:48;;;;;;;45.88;35.80;;;8.70;1.00;;;;;;5113525;27;20353;-85
2021/11/04 08:07:14;;;;;;;46.30;35.90;;;8.60;1.00;;;;;;5117032;27;21077;-86
2021/11/04 08:09:41;;;;;;;49.38;37.40;;;8.60;1.00;;;;;;5114317;27;20248;-84
2021/11/04 08:12:09;;;;;;;44.50;36.35;;;8.50;1.00;;;;;;5090910;27;20226;-85
2021/11/04 08:14:35;;;;;;;50.50;37.73;;;8.50;1.00;;;;;;5112162;27;21824;-80
2021/11/04 08:17:02;;;;;;;50.40;36.75;;;8.40;1.00;;;;;;5105254;27;20474;-78
2021/11/04 08:19:29;;;;;;;50.67;36.28;;;8.40;1.00;;;;;;5103951;27;20213;-79
2021/11/04 08:21:57;;;;;;;55.28;36.50;;;8.40;1.00;;;;;;5101603;27;20224;-79
2021/11/04 08:24:24;;;;;;;50.53;37.67;;;8.40;1.00;;;;;;5107900;27;20236;-79
2021/11/04 08:26:50;;;;;;;46.60;36.85;;;8.40;1.00;;;;;;5105462;27;20319;-80
2021/11/04 08:29:17;;;;;;;50.03;37.90;;;8.40;1.00;;;;;;5110030;27;20230;-79
2021/11/04 08:31:44;;;;;;;49.88;35.95;;;8.30;1.00;;;;;;5105665;27;20235;-79
2021/11/04 08:34:10;;;;;;;50.88;38.03;;;8.30;1.00;;;;;;5102166;27;20227;-79
2021/11/04 08:36:37;;;;;;;48.22;36.72;;;8.20;1.00;;;;;;5110444;27;20286;-79
2021/11/04 08:39:05;;;;;;;52.35;38.22;;;8.20;1.00;;;;;;5111227;27;20213;-78
2021/11/04 08:41:32;;;;;;;55.50;34.65;;;8.20;1.00;;;;;;5105641;27;20239;-81
2021/11/04 08:43:59;;;;;;;49.30;37.95;;;8.20;1.00;;;;;;5109312;27;20226;-80
2021/11/04 08:46:25;;;;;;;46.40;36.67;;;8.20;1.00;;;;;;5096551;27;20363;-79
2021/11/04 08:48:52;;;;;;;49.83;37.50;;;8.20;1.00;;;;;;5113956;27;20214;-79
2021/11/04 08:51:19;;;;;;;48.25;35.47;;;8.20;1.00;;;;;;5117581;27;20451;-77
2021/11/04 08:53:46;;;;;;;45.17;35.90;;;8.20;1.00;;;;;;5118237;27;20279;-78
2021/11/04 08:56:14;;;;;;;46.35;34.58;;;8.20;1.00;;;;;;5117532;27;21098;-79
2021/11/04 08:58:41;;;;;;;45.75;36.83;;;8.20;1.00;;;;;;5117833;27;20281;-78
2021/11/04 09:01:09;;;;;;;45.25;35.47;;;8.20;1.00;;;;;;5122083;27;21003;-78
2021/11/04 09:03:36;;;;;;;48.47;35.13;;;8.30;1.00;;;;;;5107289;27;20225;-78
2021/11/04 09:06:03;;;;;;;50.40;35.63;;;8.20;1.00;;;;;;5114471;27;20221;-79
2021/11/04 09:08:31;;;;;;;42.47;34.50;;;8.20;1.00;;;;;;5115974;27;20224;-79
2021/11/04 09:10:58;;;;;;;42.38;32.35;;;8.20;1.00;;;;;;5111553;27;20454;-78
2021/11/04 09:13:26;;;;;;;40.90;32.33;;;8.10;1.00;;;;;;5110869;27;20236;-78
2021/11/04 09:15:53;;;;;;;53.67;42.60;;;8.10;1.00;;;;;;5105791;27;20658;-79
2021/11/04 09:18:20;;;;;;;44.77;32.97;;;8.10;1.00;;;;;;5105786;27;20213;-79
2021/11/04 09:20:49;;;;;;;41.20;33.72;;;8.10;1.00;;;;;;5106797;27;20454;-78
2021/11/04 09:23:16;;;;;;;36.28;29.95;;;8.10;1.00;;;;;;5102871;27;20223;-79
2021/11/04 09:25:43;;;;;;;35.97;29.75;;;8.20;1.00;;;;;;5104995;27;20229;-79
2021/11/04 09:28:10;;;;;;;36.70;29.73;;;8.20;1.00;;;;;;5103589;27;21067;-80
2021/11/04 09:30:38;;;;;;;36.38;29.27;;;8.10;1.00;;;;;;5109074;27;20683;-79
2021/11/04 09:33:04;;;;;;;39.60;30.35;;;8.10;1.00;;;;;;5102664;27;20327;-80
2021/11/04 09:35:31;;;;;;;37.33;28.70;;;8.10;1.00;;;;;;5111337;27;20218;-79
2021/11/04 09:37:58;;;;;;;36.10;30.63;;;8.10;1.00;;;;;;5107054;27;20770;-79
2021/11/04 09:40:27;;;;;;;34.13;27.38;;;8.10;1.00;;;;;;5103078;27;20332;-81
2021/11/04 09:42:54;;;;;;;34.75;27.45;;;8.10;1.00;;;;;;5108940;27;20228;-78
2021/11/04 09:45:21;;;;;;;34.50;26.90;;;8.10;1.00;;;;;;5116507;27;20222;-81
2021/11/04 09:47:49;;;;;;;31.00;26.00;;;8.10;1.00;;;;;;5111984;27;20276;-81
2021/11/04 09:50:17;;;;;;;33.28;27.05;;;8.00;1.00;;;;;;5099532;27;20301;-79
2021/11/04 09:52:46;;;;;;;29.75;25.27;;;8.00;1.00;;;;;;5120301;27;20375;-79
2021/11/04 09:55:18;;;;;;;37.13;26.75;;;8.00;1.00;;;;;;5122240;27;20228;-80
2021/11/04 09:57:46;;;;;;;32.35;26.83;;;8.00;1.00;;;;;;5106783;27;20219;-81
2021/11/04 10:00:13;;;;;;;34.70;25.77;;;8.00;1.00;;;;;;5108744;27;20371;-81
2021/11/04 10:02:43;;;;;;;32.63;26.73;;;8.00;1.00;;;;;;5111029;27;20219;-80
2021/11/04 10:05:13;;;;;;;30.77;24.92;;;8.00;1.00;;;;;;5112436;27;20246;-81
2021/11/04 10:07:42;;;;;;;31.90;26.50;;;8.00;1.00;;;;;;5122183;27;20326;-79
2021/11/04 10:10:09;;;;;;;32.78;26.55;;;8.00;1.00;;;;;;5122800;27;20230;-81
2021/11/04 10:12:36;;;;;;;30.83;24.75;;;8.00;1.00;;;;;;5128699;27;20674;-79
2021/11/04 10:15:12;;;;;;;31.42;24.38;;;8.00;1.00;;;;;;5109104;27;20215;-81
2021/11/04 10:17:39;;;;;;;27.17;22.75;;;8.00;1.00;;;;;;5121387;27;20219;-80
2021/11/04 10:20:16;;;;;;;29.30;22.98;;;8.10;1.00;;;;;;5109546;27;20230;-82
2021/11/04 10:22:44;;;;;;;25.77;22.48;;;8.00;1.00;;;;;;5105381;27;20230;-80
2021/11/04 10:25:22;;;;;;;28.40;23.15;;;8.10;1.00;;;;;;5108766;27;20285;-80
2021/11/04 10:27:50;;;;;;;26.58;21.23;;;8.10;1.00;;;;;;5106866;27;20705;-81
2021/11/04 10:30:37;;;;;;;23.67;20.00;;;8.00;1.00;;;;;;5111359;27;20255;-81
2021/11/04 10:33:21;;;;;;;25.40;20.45;;;8.00;1.00;;;;;;5107436;27;20216;-79
2021/11/04 10:36:05;;;;;;;22.25;18.15;;;8.00;1.00;;;;;;5106706;27;20564;-80
2021/11/04 10:38:44;;;;;;;24.13;19.40;;;8.00;1.00;;;;;;5108115;27;20326;-80
2021/11/04 10:41:18;;;;;;;24.92;20.38;;;8.00;1.00;;;;;;5110226;27;20218;-80
2021/11/04 10:43:45;;;;;;;22.83;20.02;;;8.00;1.00;;;;;;5109464;27;20304;-82
2021/11/04 10:46:13;;;;;;;21.88;18.02;;;8.00;1.00;;;;;;5110842;27;20223;-79
2021/11/04 10:48:41;;;;;;;21.20;17.63;;;8.00;1.00;;;;;;5109661;27;20240;-79
2021/11/04 10:51:13;;;;;;;20.15;18.00;;;7.90;1.00;;;;;;5107746;27;20276;-79
2021/11/04 10:53:40;;;;;;;20.42;16.13;;;8.00;1.00;;;;;;5105580;27;20232;-80
2021/11/04 10:56:19;;;;;;;17.58;15.60;;;8.00;1.00;;;;;;5108537;27;20219;-78
2021/11/04 10:58:54;;;;;;;22.95;15.45;;;8.00;1.00;;;;;;5107652;27;20310;-80
2021/11/04 11:01:29;;;;;;;19.13;16.88;;;8.00;1.00;;;;;;5106972;27;20249;-78
2021/11/04 11:04:01;;;;;;;21.38;15.38;;;8.00;1.00;;;;;;5124990;27;20222;-77
2021/11/04 11:06:30;;;;;;;19.38;15.60;;;8.00;1.00;;;;;;5114343;27;20220;-79
2021/11/04 11:08:59;;;;;;;20.40;15.50;;;8.10;1.00;;;;;;5104403;27;20252;-79
2021/11/04 11:11:26;;;;;;;16.90;15.10;;;8.10;1.00;;;;;;5103591;27;20339;-77
2021/11/04 11:13:54;;;;;;;22.13;15.25;;;8.10;1.00;;;;;;5104344;27;20232;-78
2021/11/04 11:16:20;;;;;;;14.98;13.35;;;8.20;1.00;;;;;;5105185;27;20282;-79
2021/11/04 11:18:47;;;;;;;16.52;14.75;;;8.10;1.00;;;;;;5103076;27;20303;-78
2021/11/04 11:21:15;;;;;;;17.60;13.85;;;8.10;1.00;;;;;;5108754;27;20232;-78
2021/11/04 11:23:43;;;;;;;20.08;15.07;;;8.10;1.00;;;;;;5101044;27;20313;-79
2021/11/04 11:26:16;;;;;;;14.30;12.80;;;8.10;1.00;;;;;;5102645;27;20260;-79
2021/11/04 11:28:44;;;;;;;14.77;13.13;;;8.10;1.00;;;;;;5103294;27;20716;-78
2021/11/04 11:31:19;;;;;;;13.25;11.63;;;8.20;1.00;;;;;;5100164;27;21024;-81
2021/11/04 11:33:48;;;;;;;15.52;13.43;;;8.20;1.00;;;;;;5101235;27;20223;-79
2021/11/04 11:36:18;;;;;;;13.10;11.70;;;8.10;1.00;;;;;;5099000;27;20220;-81
2021/11/04 11:39:10;;;;;;;16.27;13.20;;;8.20;1.00;;;;;;5103187;27;20230;-79
2021/11/04 11:42:07;;;;;;;12.37;10.80;;;8.10;1.00;;;;;;5106397;27;20246;-78
2021/11/04 11:44:38;;;;;;;12.45;11.15;;;8.20;1.00;;;;;;5098144;27;20537;-78
2021/11/04 11:47:06;;;;;;;15.15;11.82;;;8.20;1.00;;;;;;5105156;27;20254;-78
2021/11/04 11:49:34;;;;;;;11.30;10.10;;;8.20;1.00;;;;;;5102453;27;20215;-78
2021/11/04 11:52:01;;;;;;;12.63;10.90;;;8.20;1.00;;;;;;5105939;27;20310;-78
2021/11/04 11:55:06;;;;;;;11.07;9.15;;;8.30;1.00;;;;;;5105521;27;20244;-79
2021/11/04 11:57:35;;;;;;;11.55;9.73;;;8.30;1.00;;;;;;5107767;27;20224;-78
2021/11/04 12:00:02;;;;;;;11.40;10.20;;;8.30;1.00;;;;;;5100757;27;20350;-81
2021/11/04 12:02:53;;;;;;;13.15;10.18;;;8.30;1.00;;;;;;5116524;27;20484;-78
2021/11/04 12:05:36;;;;;;;9.90;8.77;;;8.20;1.00;;;;;;5104253;27;20224;-79
2021/11/04 12:08:35;;;;;;;9.60;8.60;;;8.20;1.00;;;;;;5102035;27;20243;-78
2021/11/04 12:11:09;;;;;;;9.73;8.73;;;8.20;1.00;;;;;;5103596;27;20244;-80
2021/11/04 12:13:41;;;;;;;9.63;8.30;;;8.10;1.00;;;;;;5100272;27;20382;-79
2021/11/04 12:16:17;;;;;;;10.02;7.85;;;8.10;1.00;;;;;;5104932;27;20251;-79
2021/11/04 12:18:51;;;;;;;9.50;8.50;;;8.10;1.00;;;;;;5102280;27;20567;-78
2021/11/04 12:21:20;;;;;;;9.90;8.50;;;8.10;1.00;;;;;;5109033;27;20228;-79
2021/11/04 12:23:47;;;;;;;14.05;11.52;;;8.20;1.00;;;;;;5104023;27;20232;-79
2021/11/04 12:26:26;;;;;;;11.05;8.90;;;8.20;1.00;;;;;;5106187;27;20249;-79
2021/11/04 12:28:53;;;;;;;11.35;9.68;;;8.20;1.00;;;;;;5111605;27;20226;-80
2021/11/04 12:31:23;;;;;;;8.75;7.85;;;8.20;1.00;;;;;;5104046;27;20215;-79
2021/11/04 12:33:52;;;;;;;11.98;10.48;;;8.20;1.00;;;;;;5100617;27;21007;-80
2021/11/04 12:36:31;;;;;;;9.20;8.30;;;8.30;1.00;;;;;;5102348;27;20261;-78
2021/11/04 12:39:02;;;;;;;11.35;9.77;;;8.20;1.00;;;;;;5107411;27;20219;-80
2021/11/04 12:41:30;;;;;;;11.20;9.20;;;8.20;1.00;;;;;;5102625;27;20790;-79
2021/11/04 12:44:02;;;;;;;10.88;9.60;;;8.30;1.00;;;;;;5106805;27;20269;-80
2021/11/04 12:46:31;;;;;;;9.18;8.18;;;8.30;1.00;;;;;;5101137;27;20299;-80
2021/11/04 12:48:59;;;;;;;9.32;8.43;;;8.20;1.00;;;;;;5103473;27;20234;-80
2021/11/04 12:51:26;;;;;;;12.07;8.43;;;8.20;1.00;;;;;;5105443;27;20226;-79
2021/11/04 12:53:54;;;;;;;10.45;8.02;;;8.20;1.00;;;;;;5107260;27;20220;-79
2021/11/04 12:56:22;;;;;;;9.45;8.45;;;8.20;1.00;;;;;;5104305;27;20212;-78